createdAt,value
2022-11-05T00:00:37.550Z,29.52
2022-11-05T00:03:23.800Z,30.77
2022-11-05T00:06:12.247Z,33.13
2022-11-05T00:08:59.695Z,28.38
2022-11-05T00:11:47.680Z,31.05
2022-11-05T00:14:33.633Z,29.02
2022-11-05T00:17:00.770Z,30.02
2022-11-05T00:19:27.994Z,27.90
2022-11-05T00:22:13.969Z,27.10
2022-11-05T00:24:59.539Z,29.58
2022-11-05T00:27:28.982Z,29.35
2022-11-05T00:29:56.165Z,28.08
2022-11-05T00:32:25.728Z,23.25
2022-11-05T00:34:55.843Z,28.10
2022-11-05T00:37:25.158Z,25.97
2022-11-05T00:39:52.171Z,25.73
2022-11-05T00:42:38.136Z,27.25
2022-11-05T00:45:06.832Z,26.05
2022-11-05T00:47:53.133Z,26.27
2022-11-05T00:50:22.466Z,28.08
2022-11-05T00:53:00.723Z,26.98
2022-11-05T00:55:40.795Z,26.98
2022-11-05T00:58:20.646Z,25.48
2022-11-05T01:00:54.996Z,28.00
2022-11-05T01:03:32.590Z,25.45
2022-11-05T01:06:11.371Z,24.02
2022-11-05T01:08:39.129Z,27.15
2022-11-05T01:11:34.404Z,26.85
2022-11-05T01:14:11.788Z,25.55
2022-11-05T01:16:42.655Z,24.55
2022-11-05T01:19:11.349Z,23.45
2022-11-05T01:21:38.957Z,28.88
2022-11-05T01:24:06.776Z,25.95
2022-11-05T01:26:33.920Z,26.48
2022-11-05T01:29:01.099Z,28.30
2022-11-05T01:31:29.262Z,25.77
2022-11-05T01:33:56.384Z,25.52
2022-11-05T01:36:23.491Z,24.40
2022-11-05T01:38:50.589Z,22.77
2022-11-05T01:41:17.957Z,25.48
2022-11-05T01:43:59.309Z,21.25
2022-11-05T01:46:40.596Z,24.58
2022-11-05T01:49:25.390Z,22.75
2022-11-05T01:51:56.145Z,21.90
2022-11-05T01:54:29.706Z,23.25
2022-11-05T01:57:04.115Z,22.77
2022-11-05T01:59:40.874Z,21.77
2022-11-05T02:02:10.806Z,21.80
2022-11-05T02:04:48.104Z,20.30
2022-11-05T02:07:15.792Z,25.15
2022-11-05T02:09:56.319Z,22.45
2022-11-05T02:12:24.212Z,22.90
2022-11-05T02:14:51.318Z,23.15
2022-11-05T02:17:23.993Z,20.50
2022-11-05T02:20:03.018Z,21.85
2022-11-05T02:23:23.134Z,22.85
2022-11-05T02:26:13.379Z,23.00
2022-11-05T02:29:20.247Z,19.95
2022-11-05T02:32:17.738Z,24.05
2022-11-05T02:35:37.096Z,21.77
2022-11-05T02:38:18.076Z,21.75
2022-11-05T02:41:12.639Z,27.55
2022-11-05T02:44:18.852Z,24.50
2022-11-05T02:47:05.861Z,23.00
2022-11-05T02:50:17.700Z,22.52
2022-11-05T02:53:02.946Z,25.77
2022-11-05T02:55:45.720Z,24.52
2022-11-05T02:58:13.783Z,25.33
2022-11-05T03:00:50.340Z,23.20
2022-11-05T03:03:41.014Z,22.13
2022-11-05T03:06:31.122Z,23.67
2022-11-05T03:09:29.144Z,22.95
2022-11-05T03:12:37.078Z,21.83
2022-11-05T03:15:10.238Z,21.70
2022-11-05T03:17:52.657Z,20.30
2022-11-05T03:22:56.164Z,26.05
2022-11-05T03:25:25.902Z,22.15
2022-11-05T03:28:00.667Z,19.98
2022-11-05T03:30:28.061Z,21.33
2022-11-05T03:33:06.396Z,18.60
2022-11-05T03:35:40.211Z,18.30
2022-11-05T03:38:15.609Z,18.10
2022-11-05T03:40:46.105Z,19.35
2022-11-05T03:43:27.565Z,22.27
2022-11-05T03:46:02.075Z,12.93
2022-11-05T03:48:33.120Z,19.67
2022-11-05T03:51:34.171Z,17.63
2022-11-05T03:54:05.229Z,20.15
2022-11-05T03:57:10.466Z,17.33
2022-11-05T03:59:47.798Z,18.70
2022-11-05T04:02:23.000Z,17.95
2022-11-05T04:04:50.291Z,18.55
2022-11-05T04:07:36.162Z,18.75
2022-11-05T04:10:22.182Z,20.88
2022-11-05T04:13:10.873Z,17.85
2022-11-05T04:15:57.017Z,15.45
2022-11-05T04:18:24.354Z,20.58
2022-11-05T04:21:12.716Z,18.35
2022-11-05T04:23:58.689Z,22.92
2022-11-05T04:26:25.753Z,17.88
2022-11-05T04:29:11.690Z,21.08
2022-11-05T04:31:39.069Z,18.42
2022-11-05T04:34:11.723Z,22.15
2022-11-05T04:36:38.906Z,22.05
2022-11-05T04:39:06.005Z,20.88
2022-11-05T04:41:35.340Z,19.65
2022-11-05T04:44:02.703Z,18.33
2022-11-05T04:46:32.379Z,26.98
2022-11-05T04:48:59.651Z,23.38
2022-11-05T04:51:27.317Z,19.50
2022-11-05T04:53:54.758Z,22.30
2022-11-05T04:56:24.580Z,19.65
2022-11-05T04:58:52.303Z,20.73
2022-11-05T05:01:22.877Z,19.52
2022-11-05T05:03:52.092Z,19.75
2022-11-05T05:06:19.446Z,19.83
2022-11-05T05:08:51.760Z,20.83
2022-11-05T05:13:49.131Z,21.98
2022-11-05T05:16:21.804Z,21.08
2022-11-05T05:18:50.052Z,17.08
2022-11-05T05:21:38.447Z,18.83
2022-11-05T05:24:18.663Z,22.45
2022-11-05T05:26:49.593Z,19.75
2022-11-05T05:29:18.221Z,19.27
2022-11-05T05:31:45.406Z,19.65
2022-11-05T05:34:14.683Z,20.13
2022-11-05T05:36:41.937Z,19.40
2022-11-05T05:39:11.101Z,22.27
2022-11-05T05:41:38.492Z,21.67
2022-11-05T05:44:06.586Z,24.17
2022-11-05T05:46:33.768Z,22.90
2022-11-05T05:49:00.911Z,23.20
2022-11-05T05:51:27.984Z,22.40
2022-11-05T05:53:55.057Z,26.77
2022-11-05T05:56:22.194Z,24.77
2022-11-05T05:58:49.439Z,27.88
2022-11-05T06:01:20.345Z,24.38
2022-11-05T06:03:48.877Z,24.40
2022-11-05T06:06:21.608Z,25.80
2022-11-05T06:08:52.247Z,23.98
2022-11-05T06:11:21.772Z,22.02
2022-11-05T06:13:49.563Z,23.10
2022-11-05T06:16:22.100Z,26.90
2022-11-05T06:18:49.461Z,24.48
2022-11-05T06:21:18.265Z,28.67
2022-11-05T06:23:49.215Z,26.85
2022-11-05T06:26:18.971Z,29.33
2022-11-05T06:28:46.830Z,28.40
2022-11-05T06:31:15.534Z,29.73
2022-11-05T06:33:42.952Z,28.20
2022-11-05T06:36:15.702Z,28.27
2022-11-05T06:38:43.197Z,26.77
2022-11-05T06:41:10.963Z,27.80
2022-11-05T06:43:38.649Z,29.17
2022-11-05T06:46:06.102Z,25.88
2022-11-05T06:48:33.489Z,24.63
2022-11-05T06:51:00.595Z,25.17
2022-11-05T06:53:30.702Z,23.52
2022-11-05T06:55:57.873Z,21.77
2022-11-05T06:58:24.973Z,18.50
2022-11-05T07:00:52.193Z,22.42
2022-11-05T07:03:21.742Z,21.50
2022-11-05T07:05:51.153Z,18.85
2022-11-05T07:08:18.406Z,19.38
2022-11-05T07:10:45.699Z,24.65
2022-11-05T07:13:13.182Z,23.17
2022-11-05T07:15:40.609Z,21.40
2022-11-05T07:18:07.987Z,18.35
2022-11-05T07:20:35.415Z,20.27
2022-11-05T07:23:07.841Z,19.55
2022-11-05T07:25:35.621Z,19.30
2022-11-05T07:28:04.236Z,17.95
2022-11-05T07:30:33.068Z,19.80
2022-11-05T07:33:00.617Z,19.95
2022-11-05T07:35:28.469Z,19.33
2022-11-05T07:37:55.890Z,17.30
2022-11-05T07:40:26.872Z,17.25
2022-11-05T07:42:59.311Z,16.55
2022-11-05T07:45:31.857Z,12.98
2022-11-05T07:48:04.320Z,15.32
2022-11-05T07:50:38.244Z,18.88
2022-11-05T07:53:15.004Z,12.57
2022-11-05T07:55:44.001Z,13.57
2022-11-05T07:58:12.219Z,16.33
2022-11-05T08:00:39.860Z,12.88
2022-11-05T08:03:09.797Z,15.73
2022-11-05T08:05:40.501Z,11.40
2022-11-05T08:08:12.488Z,11.23
2022-11-05T08:10:40.600Z,10.52
2022-11-05T08:13:09.316Z,12.10
2022-11-05T08:15:36.588Z,10.30
2022-11-05T08:18:12.466Z,11.00
2022-11-05T08:20:41.803Z,11.40
2022-11-05T08:23:09.810Z,12.00
2022-11-05T08:25:40.100Z,13.32
2022-11-05T08:28:11.640Z,12.88
2022-11-05T08:30:38.771Z,8.93
2022-11-05T08:33:11.131Z,7.47
2022-11-05T08:35:39.973Z,10.13
2022-11-05T08:38:10.477Z,9.55
2022-11-05T08:40:38.127Z,9.18
2022-11-05T08:43:08.191Z,10.27
2022-11-05T08:45:41.311Z,8.57
2022-11-05T08:48:12.988Z,9.75
2022-11-05T08:50:40.400Z,8.52
2022-11-05T08:53:09.362Z,6.97
2022-11-05T08:55:38.523Z,8.88
2022-11-05T08:58:27.038Z,6.88
2022-11-05T09:00:54.269Z,7.88
2022-11-05T09:03:21.546Z,6.35
2022-11-05T09:05:48.810Z,7.20
2022-11-05T09:08:18.868Z,5.07
2022-11-05T09:10:47.795Z,6.32
2022-11-05T09:13:19.440Z,7.28
2022-11-05T09:15:49.437Z,8.27
2022-11-05T09:18:20.151Z,7.93
2022-11-05T09:20:47.739Z,7.43
2022-11-05T09:23:15.745Z,7.63
2022-11-05T09:25:43.957Z,7.47
2022-11-05T09:28:21.390Z,5.15
2022-11-05T09:30:51.435Z,6.60
2022-11-05T09:33:22.875Z,4.40
2022-11-05T09:35:53.615Z,3.57
2022-11-05T09:38:20.957Z,4.32
2022-11-05T09:41:23.613Z,3.47
2022-11-05T09:44:12.118Z,4.90
2022-11-05T09:47:03.026Z,5.00
2022-11-05T09:49:40.187Z,8.38
2022-11-05T09:52:31.912Z,3.78
2022-11-05T09:55:07.191Z,5.37
2022-11-05T09:57:53.456Z,4.15
2022-11-05T10:00:20.877Z,5.53
2022-11-05T10:03:04.571Z,7.20
2022-11-05T10:05:33.038Z,4.90
2022-11-05T10:08:26.524Z,5.10
2022-11-05T10:11:09.746Z,5.88
2022-11-05T10:13:49.679Z,3.70
2022-11-05T10:16:36.193Z,5.55
2022-11-05T10:19:28.449Z,6.95
2022-11-05T10:22:17.951Z,5.82
2022-11-05T10:24:50.910Z,5.13
2022-11-05T10:27:35.532Z,4.75
2022-11-05T10:30:02.917Z,7.00
2022-11-05T10:32:39.460Z,5.25
2022-11-05T10:35:19.025Z,7.88
2022-11-05T10:37:51.536Z,6.20
2022-11-05T10:40:27.834Z,5.43
2022-11-05T10:43:11.396Z,11.07
2022-11-05T10:46:08.855Z,8.98
2022-11-05T10:48:43.967Z,7.80
2022-11-05T10:51:14.865Z,6.05
2022-11-05T10:54:02.164Z,4.93
2022-11-05T10:56:39.314Z,8.05
2022-11-05T10:59:25.205Z,7.05
2022-11-05T11:02:23.218Z,7.15
2022-11-05T11:04:58.456Z,7.70
2022-11-05T11:07:27.030Z,7.90
2022-11-05T11:09:54.631Z,11.70
2022-11-05T11:12:26.343Z,7.32
2022-11-05T11:15:14.277Z,11.70
2022-11-05T11:17:41.847Z,13.57
2022-11-05T11:20:36.448Z,7.43
2022-11-05T11:23:12.917Z,8.90
2022-11-05T11:25:58.164Z,8.02
2022-11-05T11:28:39.970Z,6.90
2022-11-05T11:31:14.744Z,6.88
2022-11-05T11:33:48.714Z,9.10
2022-11-05T11:36:24.376Z,12.15
2022-11-05T11:38:58.396Z,6.72
2022-11-05T11:41:31.348Z,10.07
2022-11-05T11:44:12.982Z,11.75
2022-11-05T11:46:40.969Z,10.30
2022-11-05T11:49:33.711Z,12.32
2022-11-05T11:52:16.161Z,8.55
2022-11-05T11:57:29.546Z,14.07
2022-11-05T12:00:14.629Z,12.05
2022-11-05T12:03:11.260Z,11.48
2022-11-05T12:06:03.444Z,9.52
2022-11-05T12:09:18.926Z,7.35
2022-11-05T12:12:14.431Z,9.45
2022-11-05T12:14:53.662Z,12.23
2022-11-05T12:17:52.815Z,15.95
2022-11-05T12:20:38.635Z,10.95
2022-11-05T12:23:29.441Z,10.35
2022-11-05T12:26:30.906Z,12.30
2022-11-05T12:29:36.174Z,13.38
2022-11-05T12:32:29.076Z,10.38
2022-11-05T12:35:02.133Z,17.00
2022-11-05T12:37:52.272Z,11.15
2022-11-05T12:40:44.190Z,16.45
2022-11-05T12:43:43.826Z,13.52
2022-11-05T12:46:22.693Z,11.55
2022-11-05T12:49:15.541Z,12.68
2022-11-05T12:52:12.626Z,18.85
2022-11-05T12:55:03.147Z,11.13
2022-11-05T12:57:35.777Z,13.30
2022-11-05T13:00:19.586Z,10.48
2022-11-05T13:03:13.655Z,13.50
2022-11-05T13:05:45.315Z,11.65
2022-11-05T13:08:30.016Z,15.13
2022-11-05T13:11:48.381Z,14.70
2022-11-05T13:14:45.484Z,15.43
2022-11-05T13:17:42.205Z,13.85
2022-11-05T13:20:37.943Z,13.93
2022-11-05T13:23:07.952Z,15.57
2022-11-05T13:25:45.108Z,16.42
2022-11-05T13:28:46.923Z,16.55
2022-11-05T13:31:21.776Z,15.68
2022-11-05T13:33:52.803Z,14.07
2022-11-05T13:37:11.421Z,17.50
2022-11-05T13:40:03.275Z,16.90
2022-11-05T13:43:18.049Z,19.08
2022-11-05T13:46:27.655Z,15.02
2022-11-05T13:49:59.292Z,20.20
2022-11-05T13:53:06.396Z,12.18
2022-11-05T13:55:57.320Z,17.15
2022-11-05T13:58:58.226Z,15.70
2022-11-05T14:01:56.185Z,18.08
2022-11-05T14:05:02.007Z,17.20
2022-11-05T14:07:31.821Z,15.52
2022-11-05T14:10:11.873Z,18.45
2022-11-05T14:12:46.422Z,16.13
2022-11-05T14:15:31.008Z,16.02
2022-11-05T14:18:06.563Z,18.73
2022-11-05T14:20:33.514Z,24.55
2022-11-05T14:23:23.129Z,18.20
2022-11-05T14:26:17.388Z,15.77
2022-11-05T14:28:48.616Z,21.10
2022-11-05T14:31:18.673Z,18.58
2022-11-05T14:34:04.602Z,21.90
2022-11-05T14:36:46.476Z,26.20
2022-11-05T14:39:21.290Z,18.70
2022-11-05T14:42:06.446Z,25.95
2022-11-05T14:44:36.100Z,20.15
2022-11-05T14:47:07.868Z,20.42
2022-11-05T14:50:09.236Z,16.40
2022-11-05T14:52:38.802Z,18.98
2022-11-05T14:55:07.271Z,18.52
2022-11-05T14:57:44.467Z,19.40
2022-11-05T15:00:29.779Z,19.17
2022-11-05T15:03:02.582Z,21.08
2022-11-05T15:06:02.074Z,19.65
2022-11-05T15:08:44.106Z,18.27
2022-11-05T15:11:25.912Z,15.40
2022-11-05T15:13:56.393Z,22.00
2022-11-05T15:16:31.951Z,23.48
2022-11-05T15:19:00.047Z,23.30
2022-11-05T15:21:38.239Z,15.95
2022-11-05T15:24:06.107Z,16.83
2022-11-05T15:27:21.766Z,22.65
2022-11-05T15:29:49.046Z,19.75
2022-11-05T15:32:23.957Z,19.55
2022-11-05T15:34:56.354Z,17.27
2022-11-05T15:37:27.955Z,20.70
2022-11-05T15:39:55.659Z,21.42
2022-11-05T15:42:27.328Z,15.98
2022-11-05T15:44:59.988Z,17.80
2022-11-05T15:47:34.383Z,16.73
2022-11-05T15:50:14.765Z,17.10
2022-11-05T15:52:54.644Z,17.90
2022-11-05T15:55:25.636Z,16.83
2022-11-05T15:58:00.713Z,21.23
2022-11-05T16:00:37.228Z,19.70
2022-11-05T16:03:28.336Z,23.88
2022-11-05T16:05:56.274Z,18.50
2022-11-05T16:08:27.857Z,25.20
2022-11-05T16:11:00.895Z,18.95
2022-11-05T16:13:29.207Z,21.50
2022-11-05T16:15:59.487Z,21.48
2022-11-05T16:18:38.733Z,18.88
2022-11-05T16:23:59.556Z,22.92
2022-11-05T16:27:01.828Z,25.55
2022-11-05T16:29:39.557Z,22.48
2022-11-05T16:32:29.506Z,27.08
2022-11-05T16:35:02.206Z,20.08
2022-11-05T16:37:38.184Z,22.30
2022-11-05T16:40:19.273Z,22.58
2022-11-05T16:42:51.577Z,25.42
2022-11-05T16:45:23.002Z,36.88
2022-11-05T16:47:50.791Z,36.03
2022-11-05T16:50:24.361Z,43.30
2022-11-05T16:52:51.866Z,30.25
2022-11-05T16:55:19.543Z,35.63
2022-11-05T16:57:53.241Z,35.63
2022-11-05T17:00:22.350Z,32.55
2022-11-05T17:02:49.794Z,39.75
2022-11-05T17:05:28.454Z,33.05
2022-11-05T17:07:56.430Z,30.05
2022-11-05T17:10:27.977Z,29.88
2022-11-05T17:12:55.455Z,29.95
2022-11-05T17:15:35.785Z,38.10
2022-11-05T17:18:05.106Z,32.22
2022-11-05T17:20:40.873Z,37.67
2022-11-05T17:23:15.679Z,35.22
2022-11-05T17:25:47.271Z,34.63
2022-11-05T17:28:16.642Z,39.70
2022-11-05T17:30:51.682Z,42.22
2022-11-05T17:33:20.188Z,38.88
2022-11-05T17:35:47.315Z,38.25
2022-11-05T17:38:14.651Z,45.95
2022-11-05T17:40:42.076Z,39.83
2022-11-05T17:43:12.409Z,40.42
2022-11-05T17:45:52.420Z,39.67
2022-11-05T17:48:21.363Z,38.08
2022-11-05T17:50:50.549Z,35.88
2022-11-05T17:53:19.242Z,35.67
2022-11-05T17:55:47.621Z,28.88
2022-11-05T17:58:15.093Z,32.20
2022-11-05T18:00:44.337Z,36.38
2022-11-05T18:03:12.848Z,31.83
2022-11-05T18:05:41.690Z,32.00
2022-11-05T18:08:12.751Z,29.02
2022-11-05T18:10:43.412Z,29.60
2022-11-05T18:13:11.492Z,27.27
2022-11-05T18:15:41.366Z,24.38
2022-11-05T18:18:09.437Z,22.88
2022-11-05T18:20:36.671Z,24.83
2022-11-05T18:23:08.782Z,17.95
2022-11-05T18:25:36.176Z,18.77
2022-11-05T18:28:03.961Z,20.52
2022-11-05T18:30:31.151Z,27.52
2022-11-05T18:32:58.220Z,26.20
2022-11-05T18:35:25.497Z,24.92
2022-11-05T18:37:52.589Z,26.88
2022-11-05T18:40:19.724Z,24.00
2022-11-05T18:42:46.738Z,24.05
2022-11-05T18:45:13.940Z,22.60
2022-11-05T18:47:41.163Z,22.60
2022-11-05T18:50:14.160Z,22.63
2022-11-05T18:52:41.226Z,22.60
2022-11-05T18:55:09.005Z,24.75
2022-11-05T18:57:36.368Z,30.30
2022-11-05T19:00:05.145Z,30.25
2022-11-05T19:02:32.419Z,24.90
2022-11-05T19:05:28.703Z,29.70
2022-11-05T19:07:46.567Z,21.15
2022-11-05T19:10:13.890Z,21.65
2022-11-05T19:12:43.599Z,30.75
2022-11-05T19:15:11.018Z,28.70
2022-11-05T19:17:38.104Z,30.83
2022-11-05T19:20:11.411Z,26.48
2022-11-05T19:22:38.492Z,26.50
2022-11-05T19:25:06.941Z,23.23
2022-11-05T19:27:37.722Z,34.45
2022-11-05T19:30:06.665Z,26.73
2022-11-05T19:32:33.744Z,26.75
2022-11-05T19:35:00.863Z,32.50
2022-11-05T19:37:27.950Z,30.38
2022-11-05T19:39:55.031Z,25.27
2022-11-05T19:42:22.116Z,33.72
2022-11-05T19:44:49.213Z,35.65
2022-11-05T19:47:17.167Z,30.60
2022-11-05T19:49:44.216Z,37.30
2022-11-05T19:52:11.406Z,28.95
2022-11-05T19:54:41.065Z,29.08
2022-11-05T19:57:08.198Z,29.70
2022-11-05T19:59:35.285Z,33.85
2022-11-05T20:02:02.376Z,36.33
2022-11-05T20:04:32.391Z,42.50
2022-11-05T20:07:02.243Z,49.03
2022-11-05T20:09:29.481Z,34.47
2022-11-05T20:11:57.095Z,45.08
2022-11-05T20:14:26.273Z,45.50
2022-11-05T20:16:54.059Z,42.80
2022-11-05T20:19:25.069Z,44.45
2022-11-05T20:21:52.282Z,39.30
2022-11-05T20:24:24.895Z,37.15
2022-11-05T20:26:54.944Z,35.90
2022-11-05T20:29:23.774Z,38.60
2022-11-05T20:31:53.289Z,37.63
2022-11-05T20:34:20.479Z,37.88
2022-11-05T20:36:47.626Z,55.17
2022-11-05T20:39:14.864Z,43.13
2022-11-05T20:41:42.095Z,50.08
2022-11-05T20:44:09.235Z,42.33
2022-11-05T20:46:36.504Z,45.10
2022-11-05T20:49:08.445Z,44.40
2022-11-05T20:51:35.490Z,40.17
2022-11-05T20:54:03.922Z,39.15
2022-11-05T20:56:37.096Z,43.75
2022-11-05T20:59:05.514Z,35.08
2022-11-05T21:01:34.455Z,40.97
2022-11-05T21:04:03.125Z,42.92
2022-11-05T21:06:31.459Z,37.28
2022-11-05T21:08:58.771Z,43.95
2022-11-05T21:11:28.401Z,38.67
2022-11-05T21:13:55.570Z,40.78
2022-11-05T21:16:22.826Z,41.25
2022-11-05T21:18:50.096Z,41.00
2022-11-05T21:21:22.739Z,39.08
2022-11-05T21:23:49.873Z,42.85
2022-11-05T21:26:19.069Z,38.97
2022-11-05T21:28:46.237Z,41.60
2022-11-05T21:31:13.827Z,40.75
2022-11-05T21:33:43.172Z,45.72
2022-11-05T21:36:13.067Z,42.80
2022-11-05T21:38:41.150Z,48.42
2022-11-05T21:41:11.749Z,46.13
2022-11-05T21:43:41.786Z,43.53
2022-11-05T21:46:12.170Z,44.85
2022-11-05T21:48:40.107Z,46.47
2022-11-05T21:51:26.583Z,41.95
2022-11-05T21:54:15.179Z,43.30
2022-11-05T21:57:05.975Z,45.42
2022-11-05T21:59:49.026Z,48.83
2022-11-05T22:02:20.554Z,44.97
2022-11-05T22:04:52.207Z,47.78
2022-11-05T22:07:23.834Z,49.00
2022-11-05T22:09:51.354Z,46.30
2022-11-05T22:12:21.617Z,50.08
2022-11-05T22:14:48.901Z,53.38
2022-11-05T22:17:19.806Z,52.88
2022-11-05T22:19:47.248Z,47.00
2022-11-05T22:22:14.527Z,36.88
2022-11-05T22:24:44.521Z,40.47
2022-11-05T22:27:16.367Z,39.00
2022-11-05T22:29:43.640Z,43.97
2022-11-05T22:32:12.069Z,49.50
2022-11-05T22:34:39.379Z,42.42
2022-11-05T22:37:07.147Z,39.80
2022-11-05T22:39:35.204Z,40.80
2022-11-05T22:42:07.225Z,38.90
2022-11-05T22:44:36.234Z,34.38
2022-11-05T22:47:03.555Z,34.70
2022-11-05T22:49:30.740Z,36.10
2022-11-05T22:51:57.877Z,37.20
2022-11-05T22:54:25.024Z,44.63
2022-11-05T22:56:54.607Z,41.65
2022-11-05T22:59:21.797Z,39.50
2022-11-05T23:01:49.509Z,46.10
2022-11-05T23:04:17.076Z,36.90
2022-11-05T23:07:03.060Z,39.97
2022-11-05T23:09:52.934Z,43.15
2022-11-05T23:12:37.876Z,45.67
2022-11-05T23:15:07.891Z,43.95
2022-11-05T23:17:53.788Z,42.92
2022-11-05T23:20:42.258Z,49.88
2022-11-05T23:23:31.519Z,44.25
2022-11-05T23:26:00.512Z,51.35
2022-11-05T23:28:27.577Z,46.75
2022-11-05T23:31:13.506Z,55.35
2022-11-05T23:33:40.592Z,49.78
2022-11-05T23:36:31.551Z,49.45
2022-11-05T23:39:01.180Z,50.60
2022-11-05T23:41:46.823Z,52.58
2022-11-05T23:44:35.026Z,64.03
2022-11-05T23:47:21.101Z,54.38
2022-11-05T23:49:48.197Z,60.50
2022-11-05T23:52:15.354Z,52.33
2022-11-05T23:54:42.526Z,57.72
2022-11-05T23:57:09.706Z,56.13
2022-11-05T23:59:36.856Z,51.15
